sensor_id;sensor_type;location;lat;lon;timestamp;P1;durP1;ratioP1;P2;durP2;ratioP2
22967;SDS011;11650;48.106;-1.696;2023-03-14T00:01:50;8.20;;;1.40;;
22967;SDS011;11650;48.106;-1.696;2023-03-14T00:04:16;3.93;;;1.40;;
22967;SDS011;11650;48.106;-1.696;2023-03-14T00:06:42;4.87;;;1.37;;
22967;SDS011;11650;48.106;-1.696;2023-03-14T00:09:07;3.90;;;1.20;;
22967;SDS011;11650;48.106;-1.696;2023-03-14T00:11:33;6.03;;;1.53;;
22967;SDS011;11650;48.106;-1.696;2023-03-14T00:13:59;6.47;;;1.43;;
22967;SDS011;11650;48.106;-1.696;2023-03-14T00:16:25;6.63;;;1.10;;
22967;SDS011;11650;48.106;-1.696;2023-03-14T00:18:51;6.73;;;1.70;;
22967;SDS011;11650;48.106;-1.696;2023-03-14T00:21:18;5.40;;;1.27;;
22967;SDS011;11650;48.106;-1.696;2023-03-14T00:23:44;5.03;;;1.20;;
22967;SDS011;11650;48.106;-1.696;2023-03-14T00:26:11;6.07;;;1.23;;
22967;SDS011;11650;48.106;-1.696;2023-03-14T00:28:41;6.77;;;1.83;;
22967;SDS011;11650;48.106;-1.696;2023-03-14T00:31:09;4.67;;;1.30;;
22967;SDS011;11650;48.106;-1.696;2023-03-14T00:33:36;11.30;;;1.53;;
22967;SDS011;11650;48.106;-1.696;2023-03-14T00:36:05;6.40;;;1.60;;
22967;SDS011;11650;48.106;-1.696;2023-03-14T00:38:36;7.23;;;1.60;;
22967;SDS011;11650;48.106;-1.696;2023-03-14T00:41:04;7.53;;;1.40;;
22967;SDS011;11650;48.106;-1.696;2023-03-14T00:43:34;9.10;;;1.47;;
22967;SDS011;11650;48.106;-1.696;2023-03-14T00:46:00;6.77;;;1.57;;
22967;SDS011;11650;48.106;-1.696;2023-03-14T00:48:26;5.90;;;1.67;;
22967;SDS011;11650;48.106;-1.696;2023-03-14T00:50:52;5.27;;;1.10;;
22967;SDS011;11650;48.106;-1.696;2023-03-14T00:53:17;5.60;;;0.90;;
22967;SDS011;11650;48.106;-1.696;2023-03-14T00:55:43;4.63;;;0.90;;
22967;SDS011;11650;48.106;-1.696;2023-03-14T00:58:10;2.40;;;0.80;;
22967;SDS011;11650;48.106;-1.696;2023-03-14T01:00:37;5.87;;;1.10;;
22967;SDS011;11650;48.106;-1.696;2023-03-14T01:03:03;2.23;;;0.60;;
22967;SDS011;11650;48.106;-1.696;2023-03-14T01:05:29;1.90;;;0.70;;
22967;SDS011;11650;48.106;-1.696;2023-03-14T01:07:55;3.27;;;0.70;;
22967;SDS011;11650;48.106;-1.696;2023-03-14T01:10:21;4.43;;;0.97;;
22967;SDS011;11650;48.106;-1.696;2023-03-14T01:12:47;3.73;;;1.00;;
22967;SDS011;11650;48.106;-1.696;2023-03-14T01:15:13;4.63;;;1.10;;
22967;SDS011;11650;48.106;-1.696;2023-03-14T01:17:39;8.50;;;1.40;;
22967;SDS011;11650;48.106;-1.696;2023-03-14T01:20:05;11.00;;;1.33;;
22967;SDS011;11650;48.106;-1.696;2023-03-14T01:22:35;12.03;;;1.80;;
22967;SDS011;11650;48.106;-1.696;2023-03-14T01:25:03;9.53;;;1.80;;
22967;SDS011;11650;48.106;-1.696;2023-03-14T01:27:29;9.40;;;1.90;;
22967;SDS011;11650;48.106;-1.696;2023-03-14T01:29:55;8.20;;;1.70;;
22967;SDS011;11650;48.106;-1.696;2023-03-14T01:32:21;11.87;;;2.00;;
22967;SDS011;11650;48.106;-1.696;2023-03-14T01:34:46;7.50;;;1.80;;
22967;SDS011;11650;48.106;-1.696;2023-03-14T01:37:12;15.93;;;2.23;;
22967;SDS011;11650;48.106;-1.696;2023-03-14T01:39:38;9.07;;;2.03;;
22967;SDS011;11650;48.106;-1.696;2023-03-14T01:42:03;13.27;;;2.60;;
22967;SDS011;11650;48.106;-1.696;2023-03-14T01:44:46;14.70;;;2.33;;
22967;SDS011;11650;48.106;-1.696;2023-03-14T01:47:19;17.80;;;2.43;;
22967;SDS011;11650;48.106;-1.696;2023-03-14T01:49:50;16.83;;;2.60;;
22967;SDS011;11650;48.106;-1.696;2023-03-14T01:54:48;17.57;;;2.50;;
22967;SDS011;11650;48.106;-1.696;2023-03-14T01:57:22;14.10;;;3.00;;
22967;SDS011;11650;48.106;-1.696;2023-03-14T01:59:53;19.37;;;3.13;;
22967;SDS011;11650;48.106;-1.696;2023-03-14T02:02:23;24.87;;;3.53;;
22967;SDS011;11650;48.106;-1.696;2023-03-14T02:04:51;15.83;;;3.10;;
22967;SDS011;11650;48.106;-1.696;2023-03-14T02:07:25;18.13;;;2.97;;
22967;SDS011;11650;48.106;-1.696;2023-03-14T02:09:59;12.40;;;2.43;;
22967;SDS011;11650;48.106;-1.696;2023-03-14T02:12:28;16.87;;;2.50;;
22967;SDS011;11650;48.106;-1.696;2023-03-14T02:14:54;14.33;;;2.47;;
22967;SDS011;11650;48.106;-1.696;2023-03-14T02:17:19;17.97;;;2.47;;
22967;SDS011;11650;48.106;-1.696;2023-03-14T02:22:51;16.10;;;2.70;;
22967;SDS011;11650;48.106;-1.696;2023-03-14T02:28:06;13.57;;;2.13;;
22967;SDS011;11650;48.106;-1.696;2023-03-14T02:30:32;14.47;;;2.33;;
22967;SDS011;11650;48.106;-1.696;2023-03-14T02:32:58;14.47;;;2.63;;
22967;SDS011;11650;48.106;-1.696;2023-03-14T02:35:28;22.63;;;2.70;;
22967;SDS011;11650;48.106;-1.696;2023-03-14T02:40:43;21.87;;;3.03;;
22967;SDS011;11650;48.106;-1.696;2023-03-14T02:43:10;14.00;;;2.30;;
22967;SDS011;11650;48.106;-1.696;2023-03-14T02:45:37;17.83;;;2.77;;
22967;SDS011;11650;48.106;-1.696;2023-03-14T02:48:15;15.57;;;2.40;;
22967;SDS011;11650;48.106;-1.696;2023-03-14T02:50:44;9.30;;;1.93;;
22967;SDS011;11650;48.106;-1.696;2023-03-14T02:53:13;13.97;;;2.30;;
22967;SDS011;11650;48.106;-1.696;2023-03-14T02:55:44;11.97;;;1.83;;
22967;SDS011;11650;48.106;-1.696;2023-03-14T02:58:11;11.87;;;2.37;;
22967;SDS011;11650;48.106;-1.696;2023-03-14T03:00:37;8.13;;;1.93;;
22967;SDS011;11650;48.106;-1.696;2023-03-14T03:03:02;7.23;;;1.47;;
22967;SDS011;11650;48.106;-1.696;2023-03-14T03:05:30;12.00;;;1.83;;
22967;SDS011;11650;48.106;-1.696;2023-03-14T03:07:56;10.67;;;1.80;;
22967;SDS011;11650;48.106;-1.696;2023-03-14T03:10:22;13.70;;;2.30;;
22967;SDS011;11650;48.106;-1.696;2023-03-14T03:12:48;10.30;;;1.93;;
22967;SDS011;11650;48.106;-1.696;2023-03-14T03:15:13;9.90;;;2.13;;
22967;SDS011;11650;48.106;-1.696;2023-03-14T03:17:39;8.43;;;1.90;;
22967;SDS011;11650;48.106;-1.696;2023-03-14T03:20:05;10.60;;;1.90;;
22967;SDS011;11650;48.106;-1.696;2023-03-14T03:22:34;15.70;;;2.07;;
22967;SDS011;11650;48.106;-1.696;2023-03-14T03:25:00;20.77;;;2.83;;
22967;SDS011;11650;48.106;-1.696;2023-03-14T03:27:28;14.73;;;2.40;;
22967;SDS011;11650;48.106;-1.696;2023-03-14T03:29:58;21.10;;;2.97;;
22967;SDS011;11650;48.106;-1.696;2023-03-14T03:32:24;14.40;;;2.57;;
22967;SDS011;11650;48.106;-1.696;2023-03-14T03:34:49;16.13;;;2.70;;
22967;SDS011;11650;48.106;-1.696;2023-03-14T03:37:15;14.87;;;2.90;;
22967;SDS011;11650;48.106;-1.696;2023-03-14T03:39:41;17.03;;;2.77;;
22967;SDS011;11650;48.106;-1.696;2023-03-14T03:42:07;19.73;;;2.93;;
22967;SDS011;11650;48.106;-1.696;2023-03-14T03:44:32;16.80;;;3.20;;
22967;SDS011;11650;48.106;-1.696;2023-03-14T03:46:58;15.63;;;2.37;;
22967;SDS011;11650;48.106;-1.696;2023-03-14T03:49:24;12.43;;;3.03;;
22967;SDS011;11650;48.106;-1.696;2023-03-14T03:51:54;19.23;;;3.20;;
22967;SDS011;11650;48.106;-1.696;2023-03-14T03:54:20;18.87;;;3.67;;
22967;SDS011;11650;48.106;-1.696;2023-03-14T03:56:45;19.70;;;3.13;;
22967;SDS011;11650;48.106;-1.696;2023-03-14T03:59:11;16.90;;;3.20;;
22967;SDS011;11650;48.106;-1.696;2023-03-14T04:01:37;21.43;;;3.47;;
22967;SDS011;11650;48.106;-1.696;2023-03-14T04:04:02;22.40;;;3.03;;
22967;SDS011;11650;48.106;-1.696;2023-03-14T04:06:28;21.23;;;3.33;;
22967;SDS011;11650;48.106;-1.696;2023-03-14T04:08:54;22.87;;;3.60;;
22967;SDS011;11650;48.106;-1.696;2023-03-14T04:11:19;20.07;;;3.40;;
22967;SDS011;11650;48.106;-1.696;2023-03-14T04:13:45;17.80;;;3.37;;
22967;SDS011;11650;48.106;-1.696;2023-03-14T04:16:14;14.83;;;2.77;;
22967;SDS011;11650;48.106;-1.696;2023-03-14T04:18:43;19.70;;;2.70;;
22967;SDS011;11650;48.106;-1.696;2023-03-14T04:21:08;16.80;;;3.13;;
22967;SDS011;11650;48.106;-1.696;2023-03-14T04:23:34;14.73;;;2.70;;
22967;SDS011;11650;48.106;-1.696;2023-03-14T04:26:00;19.07;;;2.63;;
22967;SDS011;11650;48.106;-1.696;2023-03-14T04:28:25;12.83;;;2.73;;
22967;SDS011;11650;48.106;-1.696;2023-03-14T04:30:51;11.40;;;2.53;;
22967;SDS011;11650;48.106;-1.696;2023-03-14T04:33:17;12.27;;;2.47;;
22967;SDS011;11650;48.106;-1.696;2023-03-14T04:35:43;17.53;;;2.63;;
22967;SDS011;11650;48.106;-1.696;2023-03-14T04:38:09;17.43;;;2.53;;
22967;SDS011;11650;48.106;-1.696;2023-03-14T04:40:38;16.73;;;2.70;;
22967;SDS011;11650;48.106;-1.696;2023-03-14T04:43:05;18.03;;;2.77;;
22967;SDS011;11650;48.106;-1.696;2023-03-14T04:45:32;14.57;;;2.73;;
22967;SDS011;11650;48.106;-1.696;2023-03-14T04:47:58;19.03;;;2.60;;
22967;SDS011;11650;48.106;-1.696;2023-03-14T04:50:23;20.77;;;2.93;;
22967;SDS011;11650;48.106;-1.696;2023-03-14T04:52:49;15.13;;;2.43;;
22967;SDS011;11650;48.106;-1.696;2023-03-14T04:55:15;15.10;;;2.70;;
22967;SDS011;11650;48.106;-1.696;2023-03-14T04:57:40;17.63;;;2.67;;
22967;SDS011;11650;48.106;-1.696;2023-03-14T05:00:06;21.27;;;2.80;;
22967;SDS011;11650;48.106;-1.696;2023-03-14T05:02:33;23.53;;;3.07;;
22967;SDS011;11650;48.106;-1.696;2023-03-14T05:04:59;20.43;;;3.03;;
22967;SDS011;11650;48.106;-1.696;2023-03-14T05:07:25;21.33;;;3.03;;
22967;SDS011;11650;48.106;-1.696;2023-03-14T05:09:50;17.80;;;3.70;;
22967;SDS011;11650;48.106;-1.696;2023-03-14T05:12:18;22.57;;;3.87;;
22967;SDS011;11650;48.106;-1.696;2023-03-14T05:14:44;15.90;;;3.07;;
22967;SDS011;11650;48.106;-1.696;2023-03-14T05:17:10;21.13;;;3.53;;
22967;SDS011;11650;48.106;-1.696;2023-03-14T05:19:39;20.83;;;2.80;;
22967;SDS011;11650;48.106;-1.696;2023-03-14T05:22:05;14.97;;;2.47;;
22967;SDS011;11650;48.106;-1.696;2023-03-14T05:24:31;15.13;;;2.50;;
22967;SDS011;11650;48.106;-1.696;2023-03-14T05:26:56;23.57;;;3.17;;
22967;SDS011;11650;48.106;-1.696;2023-03-14T05:29:22;21.50;;;2.90;;
22967;SDS011;11650;48.106;-1.696;2023-03-14T05:31:47;23.63;;;3.60;;
22967;SDS011;11650;48.106;-1.696;2023-03-14T05:34:13;23.97;;;3.43;;
22967;SDS011;11650;48.106;-1.696;2023-03-14T05:36:39;22.50;;;3.47;;
22967;SDS011;11650;48.106;-1.696;2023-03-14T05:39:04;19.87;;;3.00;;
22967;SDS011;11650;48.106;-1.696;2023-03-14T05:41:30;15.57;;;2.60;;
22967;SDS011;11650;48.106;-1.696;2023-03-14T05:43:56;17.77;;;3.27;;
22967;SDS011;11650;48.106;-1.696;2023-03-14T05:46:21;17.57;;;3.10;;
22967;SDS011;11650;48.106;-1.696;2023-03-14T05:48:47;22.17;;;3.37;;
22967;SDS011;11650;48.106;-1.696;2023-03-14T05:51:13;21.70;;;3.57;;
22967;SDS011;11650;48.106;-1.696;2023-03-14T05:53:38;17.57;;;3.23;;
22967;SDS011;11650;48.106;-1.696;2023-03-14T05:56:04;21.00;;;3.23;;
22967;SDS011;11650;48.106;-1.696;2023-03-14T05:58:30;18.43;;;3.70;;
22967;SDS011;11650;48.106;-1.696;2023-03-14T06:00:55;21.00;;;3.07;;
22967;SDS011;11650;48.106;-1.696;2023-03-14T06:03:21;16.50;;;3.10;;
22967;SDS011;11650;48.106;-1.696;2023-03-14T06:05:49;23.23;;;3.00;;
22967;SDS011;11650;48.106;-1.696;2023-03-14T06:08:15;23.23;;;3.00;;
22967;SDS011;11650;48.106;-1.696;2023-03-14T06:10:41;21.53;;;3.57;;
22967;SDS011;11650;48.106;-1.696;2023-03-14T06:13:06;19.70;;;3.67;;
22967;SDS011;11650;48.106;-1.696;2023-03-14T06:15:32;19.50;;;3.20;;
22967;SDS011;11650;48.106;-1.696;2023-03-14T06:17:58;16.93;;;3.03;;
22967;SDS011;11650;48.106;-1.696;2023-03-14T06:20:23;20.27;;;3.13;;
22967;SDS011;11650;48.106;-1.696;2023-03-14T06:22:49;18.73;;;3.17;;
22967;SDS011;11650;48.106;-1.696;2023-03-14T06:25:15;22.20;;;3.67;;
22967;SDS011;11650;48.106;-1.696;2023-03-14T06:27:41;14.83;;;3.27;;
22967;SDS011;11650;48.106;-1.696;2023-03-14T06:30:07;11.17;;;2.23;;
22967;SDS011;11650;48.106;-1.696;2023-03-14T06:32:33;12.43;;;2.37;;
22967;SDS011;11650;48.106;-1.696;2023-03-14T06:34:59;27.60;;;4.20;;
22967;SDS011;11650;48.106;-1.696;2023-03-14T06:37:26;18.43;;;3.07;;
22967;SDS011;11650;48.106;-1.696;2023-03-14T06:39:53;16.47;;;2.47;;
22967;SDS011;11650;48.106;-1.696;2023-03-14T06:42:19;20.70;;;3.07;;
22967;SDS011;11650;48.106;-1.696;2023-03-14T06:44:44;10.90;;;2.10;;
22967;SDS011;11650;48.106;-1.696;2023-03-14T06:47:10;15.40;;;2.50;;
22967;SDS011;11650;48.106;-1.696;2023-03-14T06:49:36;15.37;;;2.83;;
22967;SDS011;11650;48.106;-1.696;2023-03-14T06:52:01;15.43;;;2.80;;
22967;SDS011;11650;48.106;-1.696;2023-03-14T06:54:27;13.80;;;2.67;;
22967;SDS011;11650;48.106;-1.696;2023-03-14T06:56:53;18.37;;;2.70;;
22967;SDS011;11650;48.106;-1.696;2023-03-14T06:59:18;19.13;;;3.00;;
22967;SDS011;11650;48.106;-1.696;2023-03-14T07:01:44;13.97;;;2.60;;
22967;SDS011;11650;48.106;-1.696;2023-03-14T07:04:10;14.27;;;2.83;;
22967;SDS011;11650;48.106;-1.696;2023-03-14T07:06:35;17.03;;;2.80;;
22967;SDS011;11650;48.106;-1.696;2023-03-14T07:09:01;11.53;;;1.90;;
22967;SDS011;11650;48.106;-1.696;2023-03-14T07:11:27;15.90;;;2.27;;
22967;SDS011;11650;48.106;-1.696;2023-03-14T07:13:53;16.77;;;2.73;;
22967;SDS011;11650;48.106;-1.696;2023-03-14T07:16:19;14.13;;;2.70;;
22967;SDS011;11650;48.106;-1.696;2023-03-14T07:18:45;16.20;;;2.60;;
22967;SDS011;11650;48.106;-1.696;2023-03-14T07:21:10;16.70;;;3.03;;
22967;SDS011;11650;48.106;-1.696;2023-03-14T07:23:37;12.13;;;2.20;;
22967;SDS011;11650;48.106;-1.696;2023-03-14T07:26:03;17.37;;;2.90;;
22967;SDS011;11650;48.106;-1.696;2023-03-14T07:28:29;19.70;;;3.47;;
22967;SDS011;11650;48.106;-1.696;2023-03-14T07:30:55;17.70;;;2.90;;
22967;SDS011;11650;48.106;-1.696;2023-03-14T07:33:20;21.50;;;3.20;;
22967;SDS011;11650;48.106;-1.696;2023-03-14T07:35:47;17.27;;;2.63;;
22967;SDS011;11650;48.106;-1.696;2023-03-14T07:38:13;16.70;;;3.43;;
22967;SDS011;11650;48.106;-1.696;2023-03-14T07:40:39;10.90;;;2.70;;
22967;SDS011;11650;48.106;-1.696;2023-03-14T07:43:04;11.00;;;2.33;;
22967;SDS011;11650;48.106;-1.696;2023-03-14T07:45:30;14.77;;;2.37;;
22967;SDS011;11650;48.106;-1.696;2023-03-14T07:47:56;14.87;;;2.50;;
22967;SDS011;11650;48.106;-1.696;2023-03-14T07:50:23;18.33;;;2.53;;
22967;SDS011;11650;48.106;-1.696;2023-03-14T07:52:49;20.27;;;3.07;;
22967;SDS011;11650;48.106;-1.696;2023-03-14T07:55:15;12.13;;;2.40;;
22967;SDS011;11650;48.106;-1.696;2023-03-14T07:57:40;12.80;;;2.43;;
22967;SDS011;11650;48.106;-1.696;2023-03-14T08:00:06;16.33;;;2.27;;
22967;SDS011;11650;48.106;-1.696;2023-03-14T08:02:33;14.23;;;2.63;;
22967;SDS011;11650;48.106;-1.696;2023-03-14T08:04:58;11.90;;;2.60;;
22967;SDS011;11650;48.106;-1.696;2023-03-14T08:07:24;13.83;;;2.03;;
22967;SDS011;11650;48.106;-1.696;2023-03-14T08:09:50;19.90;;;3.00;;
22967;SDS011;11650;48.106;-1.696;2023-03-14T08:12:15;18.17;;;2.67;;
22967;SDS011;11650;48.106;-1.696;2023-03-14T08:14:41;8.97;;;1.87;;
22967;SDS011;11650;48.106;-1.696;2023-03-14T08:17:07;16.97;;;2.80;;
22967;SDS011;11650;48.106;-1.696;2023-03-14T08:19:33;13.40;;;3.20;;
22967;SDS011;11650;48.106;-1.696;2023-03-14T08:21:59;17.27;;;2.50;;
22967;SDS011;11650;48.106;-1.696;2023-03-14T08:24:24;13.57;;;2.80;;
22967;SDS011;11650;48.106;-1.696;2023-03-14T08:26:50;13.67;;;2.53;;
22967;SDS011;11650;48.106;-1.696;2023-03-14T08:29:16;14.13;;;2.50;;
22967;SDS011;11650;48.106;-1.696;2023-03-14T08:31:41;21.50;;;2.73;;
22967;SDS011;11650;48.106;-1.696;2023-03-14T08:34:07;16.60;;;2.60;;
22967;SDS011;11650;48.106;-1.696;2023-03-14T08:36:33;18.60;;;3.00;;
22967;SDS011;11650;48.106;-1.696;2023-03-14T08:38:58;18.13;;;2.97;;
22967;SDS011;11650;48.106;-1.696;2023-03-14T08:41:24;20.97;;;2.93;;
22967;SDS011;11650;48.106;-1.696;2023-03-14T08:43:50;14.67;;;2.33;;
22967;SDS011;11650;48.106;-1.696;2023-03-14T08:46:15;24.00;;;3.30;;
22967;SDS011;11650;48.106;-1.696;2023-03-14T08:48:41;16.47;;;2.40;;
22967;SDS011;11650;48.106;-1.696;2023-03-14T08:51:11;11.23;;;2.47;;
22967;SDS011;11650;48.106;-1.696;2023-03-14T08:53:39;12.80;;;2.10;;
22967;SDS011;11650;48.106;-1.696;2023-03-14T08:56:05;11.77;;;2.20;;
22967;SDS011;11650;48.106;-1.696;2023-03-14T08:58:32;15.33;;;2.70;;
22967;SDS011;11650;48.106;-1.696;2023-03-14T09:00:58;15.67;;;2.30;;
22967;SDS011;11650;48.106;-1.696;2023-03-14T09:03:24;16.13;;;2.50;;
22967;SDS011;11650;48.106;-1.696;2023-03-14T09:05:50;17.57;;;2.63;;
22967;SDS011;11650;48.106;-1.696;2023-03-14T09:08:16;16.37;;;2.40;;
22967;SDS011;11650;48.106;-1.696;2023-03-14T09:10:42;19.20;;;2.63;;
22967;SDS011;11650;48.106;-1.696;2023-03-14T09:13:07;20.27;;;2.80;;
22967;SDS011;11650;48.106;-1.696;2023-03-14T09:15:33;12.60;;;2.50;;
22967;SDS011;11650;48.106;-1.696;2023-03-14T09:17:59;15.97;;;2.23;;
22967;SDS011;11650;48.106;-1.696;2023-03-14T09:20:25;15.17;;;2.43;;
22967;SDS011;11650;48.106;-1.696;2023-03-14T09:22:51;12.27;;;3.27;;
22967;SDS011;11650;48.106;-1.696;2023-03-14T09:25:17;15.30;;;2.53;;
22967;SDS011;11650;48.106;-1.696;2023-03-14T09:27:43;13.20;;;3.10;;
22967;SDS011;11650;48.106;-1.696;2023-03-14T09:30:08;13.57;;;2.43;;
22967;SDS011;11650;48.106;-1.696;2023-03-14T09:32:35;13.90;;;2.60;;
22967;SDS011;11650;48.106;-1.696;2023-03-14T09:35:01;19.87;;;2.80;;
22967;SDS011;11650;48.106;-1.696;2023-03-14T09:37:27;9.40;;;2.23;;
22967;SDS011;11650;48.106;-1.696;2023-03-14T09:39:52;57.30;;;7.83;;
22967;SDS011;11650;48.106;-1.696;2023-03-14T09:42:19;15.43;;;2.33;;
22967;SDS011;11650;48.106;-1.696;2023-03-14T09:47:43;11.37;;;1.83;;
22967;SDS011;11650;48.106;-1.696;2023-03-14T09:50:13;11.80;;;2.90;;
22967;SDS011;11650;48.106;-1.696;2023-03-14T09:52:41;10.63;;;1.97;;
22967;SDS011;11650;48.106;-1.696;2023-03-14T09:55:12;9.13;;;1.90;;
22967;SDS011;11650;48.106;-1.696;2023-03-14T09:57:45;9.57;;;2.63;;
22967;SDS011;11650;48.106;-1.696;2023-03-14T10:02:51;12.43;;;2.77;;
22967;SDS011;11650;48.106;-1.696;2023-03-14T10:05:21;14.67;;;2.63;;
22967;SDS011;11650;48.106;-1.696;2023-03-14T10:07:48;15.00;;;2.53;;
22967;SDS011;11650;48.106;-1.696;2023-03-14T10:10:21;14.77;;;2.03;;
22967;SDS011;11650;48.106;-1.696;2023-03-14T10:12:59;11.23;;;2.47;;
22967;SDS011;11650;48.106;-1.696;2023-03-14T10:15:33;11.57;;;2.20;;
22967;SDS011;11650;48.106;-1.696;2023-03-14T10:18:00;10.50;;;2.37;;
22967;SDS011;11650;48.106;-1.696;2023-03-14T10:23:00;19.90;;;2.67;;
22967;SDS011;11650;48.106;-1.696;2023-03-14T10:25:33;13.23;;;2.23;;
22967;SDS011;11650;48.106;-1.696;2023-03-14T10:28:00;11.17;;;1.80;;
22967;SDS011;11650;48.106;-1.696;2023-03-14T10:32:57;9.53;;;1.70;;
22967;SDS011;11650;48.106;-1.696;2023-03-14T10:35:34;13.87;;;2.50;;
22967;SDS011;11650;48.106;-1.696;2023-03-14T10:38:00;10.53;;;2.33;;
22967;SDS011;11650;48.106;-1.696;2023-03-14T10:40:28;14.03;;;1.93;;
22967;SDS011;11650;48.106;-1.696;2023-03-14T10:43:00;15.63;;;2.90;;
22967;SDS011;11650;48.106;-1.696;2023-03-14T10:45:34;8.63;;;2.10;;
22967;SDS011;11650;48.106;-1.696;2023-03-14T10:50:43;12.63;;;1.87;;
22967;SDS011;11650;48.106;-1.696;2023-03-14T10:53:40;12.03;;;2.53;;
22967;SDS011;11650;48.106;-1.696;2023-03-14T10:56:06;11.73;;;1.77;;
22967;SDS011;11650;48.106;-1.696;2023-03-14T10:58:38;11.23;;;1.83;;
22967;SDS011;11650;48.106;-1.696;2023-03-14T11:03:57;13.13;;;2.60;;
22967;SDS011;11650;48.106;-1.696;2023-03-14T11:06:36;23.03;;;3.40;;
22967;SDS011;11650;48.106;-1.696;2023-03-14T11:15:14;12.50;;;2.40;;
22967;SDS011;11650;48.106;-1.696;2023-03-14T11:23:18;17.70;;;2.93;;
22967;SDS011;11650;48.106;-1.696;2023-03-14T11:28:38;12.27;;;1.73;;
22967;SDS011;11650;48.106;-1.696;2023-03-14T11:36:31;9.63;;;2.07;;
22967;SDS011;11650;48.106;-1.696;2023-03-14T11:39:03;15.60;;;2.77;;
22967;SDS011;11650;48.106;-1.696;2023-03-14T11:41:51;14.30;;;2.90;;
22967;SDS011;11650;48.106;-1.696;2023-03-14T11:44:27;16.37;;;2.50;;
22967;SDS011;11650;48.106;-1.696;2023-03-14T11:47:09;10.30;;;2.50;;
22967;SDS011;11650;48.106;-1.696;2023-03-14T11:49:38;16.13;;;2.87;;
22967;SDS011;11650;48.106;-1.696;2023-03-14T11:52:55;15.00;;;3.00;;
22967;SDS011;11650;48.106;-1.696;2023-03-14T11:57:23;11.30;;;2.13;;
22967;SDS011;11650;48.106;-1.696;2023-03-14T12:07:23;11.90;;;2.50;;
22967;SDS011;11650;48.106;-1.696;2023-03-14T12:09:59;13.30;;;2.40;;
22967;SDS011;11650;48.106;-1.696;2023-03-14T12:12:25;17.70;;;2.80;;
22967;SDS011;11650;48.106;-1.696;2023-03-14T12:14:54;13.80;;;2.93;;
22967;SDS011;11650;48.106;-1.696;2023-03-14T12:17:24;9.47;;;2.57;;
22967;SDS011;11650;48.106;-1.696;2023-03-14T12:22:46;7.33;;;1.77;;
22967;SDS011;11650;48.106;-1.696;2023-03-14T12:25:16;11.10;;;2.50;;
22967;SDS011;11650;48.106;-1.696;2023-03-14T12:35:52;10.00;;;2.30;;
22967;SDS011;11650;48.106;-1.696;2023-03-14T12:38:37;12.83;;;2.57;;
22967;SDS011;11650;48.106;-1.696;2023-03-14T12:43:46;11.33;;;2.40;;
22967;SDS011;11650;48.106;-1.696;2023-03-14T12:49:04;13.90;;;2.80;;
22967;SDS011;11650;48.106;-1.696;2023-03-14T12:59:31;14.07;;;2.60;;
22967;SDS011;11650;48.106;-1.696;2023-03-14T13:12:51;11.07;;;2.80;;
22967;SDS011;11650;48.106;-1.696;2023-03-14T13:17:51;10.80;;;2.70;;
22967;SDS011;11650;48.106;-1.696;2023-03-14T13:20:22;9.53;;;2.03;;
22967;SDS011;11650;48.106;-1.696;2023-03-14T13:22:53;12.07;;;2.30;;
22967;SDS011;11650;48.106;-1.696;2023-03-14T13:25:19;10.10;;;1.83;;
22967;SDS011;11650;48.106;-1.696;2023-03-14T13:27:47;9.83;;;2.27;;
22967;SDS011;11650;48.106;-1.696;2023-03-14T13:32:52;8.57;;;1.80;;
22967;SDS011;11650;48.106;-1.696;2023-03-14T13:35:27;7.80;;;2.60;;
22967;SDS011;11650;48.106;-1.696;2023-03-14T13:38:02;11.37;;;2.40;;
22967;SDS011;11650;48.106;-1.696;2023-03-14T13:40:29;9.87;;;2.63;;
22967;SDS011;11650;48.106;-1.696;2023-03-14T13:45:56;12.73;;;2.40;;
22967;SDS011;11650;48.106;-1.696;2023-03-14T13:48:28;15.63;;;3.40;;
22967;SDS011;11650;48.106;-1.696;2023-03-14T13:51:03;20.37;;;3.57;;
22967;SDS011;11650;48.106;-1.696;2023-03-14T13:53:31;17.20;;;3.10;;
22967;SDS011;11650;48.106;-1.696;2023-03-14T13:56:08;17.77;;;3.40;;
22967;SDS011;11650;48.106;-1.696;2023-03-14T13:58:35;17.23;;;3.30;;
22967;SDS011;11650;48.106;-1.696;2023-03-14T14:01:10;16.27;;;3.10;;
22967;SDS011;11650;48.106;-1.696;2023-03-14T14:03:44;13.90;;;2.67;;
22967;SDS011;11650;48.106;-1.696;2023-03-14T14:06:25;17.93;;;2.80;;
22967;SDS011;11650;48.106;-1.696;2023-03-14T14:09:02;18.53;;;2.70;;
22967;SDS011;11650;48.106;-1.696;2023-03-14T14:11:42;16.50;;;3.13;;
22967;SDS011;11650;48.106;-1.696;2023-03-14T14:14:18;18.20;;;3.23;;
22967;SDS011;11650;48.106;-1.696;2023-03-14T14:16:59;15.17;;;2.40;;
22967;SDS011;11650;48.106;-1.696;2023-03-14T14:19:28;17.23;;;2.90;;
22967;SDS011;11650;48.106;-1.696;2023-03-14T14:21:57;12.60;;;2.67;;
22967;SDS011;11650;48.106;-1.696;2023-03-14T14:24:23;13.87;;;3.27;;
22967;SDS011;11650;48.106;-1.696;2023-03-14T14:26:54;11.87;;;2.90;;
22967;SDS011;11650;48.106;-1.696;2023-03-14T14:29:26;16.07;;;2.53;;
22967;SDS011;11650;48.106;-1.696;2023-03-14T14:32:08;15.77;;;2.83;;
22967;SDS011;11650;48.106;-1.696;2023-03-14T14:34:42;9.60;;;1.83;;
22967;SDS011;11650;48.106;-1.696;2023-03-14T14:37:24;6.33;;;2.13;;
22967;SDS011;11650;48.106;-1.696;2023-03-14T14:39:52;7.90;;;2.10;;
22967;SDS011;11650;48.106;-1.696;2023-03-14T14:42:20;11.83;;;2.63;;
22967;SDS011;11650;48.106;-1.696;2023-03-14T14:44:50;9.73;;;2.03;;
22967;SDS011;11650;48.106;-1.696;2023-03-14T14:47:21;10.73;;;2.33;;
22967;SDS011;11650;48.106;-1.696;2023-03-14T14:49:49;9.10;;;1.90;;
22967;SDS011;11650;48.106;-1.696;2023-03-14T14:52:18;9.57;;;1.80;;
22967;SDS011;11650;48.106;-1.696;2023-03-14T14:54:46;7.13;;;1.73;;
22967;SDS011;11650;48.106;-1.696;2023-03-14T14:57:28;20.63;;;3.67;;
22967;SDS011;11650;48.106;-1.696;2023-03-14T15:00:03;9.30;;;2.03;;
22967;SDS011;11650;48.106;-1.696;2023-03-14T15:02:38;9.97;;;1.80;;
22967;SDS011;11650;48.106;-1.696;2023-03-14T15:05:18;10.57;;;2.23;;
22967;SDS011;11650;48.106;-1.696;2023-03-14T15:07:46;9.63;;;1.90;;
22967;SDS011;11650;48.106;-1.696;2023-03-14T15:10:13;9.67;;;2.07;;
22967;SDS011;11650;48.106;-1.696;2023-03-14T15:12:41;7.10;;;1.70;;
22967;SDS011;11650;48.106;-1.696;2023-03-14T15:15:07;8.40;;;1.60;;
22967;SDS011;11650;48.106;-1.696;2023-03-14T15:17:34;6.83;;;1.80;;
22967;SDS011;11650;48.106;-1.696;2023-03-14T15:20:01;5.87;;;1.40;;
22967;SDS011;11650;48.106;-1.696;2023-03-14T15:22:29;7.80;;;1.73;;
22967;SDS011;11650;48.106;-1.696;2023-03-14T15:24:55;4.90;;;1.33;;
22967;SDS011;11650;48.106;-1.696;2023-03-14T15:27:21;6.10;;;1.40;;
22967;SDS011;11650;48.106;-1.696;2023-03-14T15:29:46;8.20;;;1.67;;
22967;SDS011;11650;48.106;-1.696;2023-03-14T15:32:12;7.37;;;1.73;;
22967;SDS011;11650;48.106;-1.696;2023-03-14T15:34:40;7.20;;;1.63;;
22967;SDS011;11650;48.106;-1.696;2023-03-14T15:37:12;5.60;;;1.37;;
22967;SDS011;11650;48.106;-1.696;2023-03-14T15:39:41;6.53;;;1.30;;
22967;SDS011;11650;48.106;-1.696;2023-03-14T15:42:07;5.40;;;1.40;;
22967;SDS011;11650;48.106;-1.696;2023-03-14T15:44:33;8.60;;;1.73;;
22967;SDS011;11650;48.106;-1.696;2023-03-14T15:46:59;7.77;;;1.63;;
22967;SDS011;11650;48.106;-1.696;2023-03-14T15:49:25;6.50;;;1.30;;
22967;SDS011;11650;48.106;-1.696;2023-03-14T15:51:50;15.27;;;2.80;;
22967;SDS011;11650;48.106;-1.696;2023-03-14T15:54:16;8.57;;;1.53;;
22967;SDS011;11650;48.106;-1.696;2023-03-14T15:56:41;7.63;;;1.63;;
22967;SDS011;11650;48.106;-1.696;2023-03-14T15:59:07;6.90;;;1.30;;
22967;SDS011;11650;48.106;-1.696;2023-03-14T16:01:33;8.20;;;1.60;;
22967;SDS011;11650;48.106;-1.696;2023-03-14T16:03:59;7.83;;;1.40;;
22967;SDS011;11650;48.106;-1.696;2023-03-14T16:06:24;7.73;;;1.40;;
22967;SDS011;11650;48.106;-1.696;2023-03-14T16:08:50;6.47;;;1.30;;
22967;SDS011;11650;48.106;-1.696;2023-03-14T16:11:16;5.10;;;1.50;;